Flight Track Log - Related Links

Times and Time Zones

All times are in EDT time to prevent confusion due to time zone crossing. See the AAL1459 flight status page for this flight to view local times or setup timezone preferences in your user account.

Time Position Orientation Groundspeed Altitude Reporting Facility
EDT Latitude Longitude Course Direction KTS MPH feet Rate Location/Type
Thu 06:39:38 PM 41.9667 -88.0167 270° West 225 259 3,600  Level Chicago TRACON
Thu 06:41:00 PM 41.9667 -88.3728 270° West  Level FlightAware Approximate
Thu 06:41:20 PM 41.9333 -88.1592 253° West 272 313 8,300  Level Chicago Center
Thu 06:42:00 PM 41.9667 -88.5304 270° West  Level FlightAware Approximate
Thu 06:42:22 PM 41.9867 -88.2433 310° West 300 345 11,200  Level Chicago Center
Thu 06:43:00 PM 41.9667 -88.6881 270° West  Level FlightAware Approximate
Thu 06:43:24 PM 42.0311 -88.3678 296° West 312 359 13,900  Level Chicago Center
Thu 06:44:00 PM 41.9668 -88.8457 270° West  Level FlightAware Approximate
Thu 06:44:26 PM 42.0661 -88.4864 292° West 337 388 16,300  Level Chicago Center
Thu 06:45:28 PM 42.0856 -88.6164 281° West 359 413 18,800 2,274 Climbing Chicago Center
Thu 06:46:30 PM 42.0867 -88.7497 271° West 361 415 21,000 2,226 Climbing Chicago Center
Thu 06:47:32 PM 42.0881 -88.8931 271° West 361 415 23,400 2,112 Climbing Chicago Center
Thu 06:48:35 PM 42.0925 -89.0317 273° West 367 422 25,400 1,824 Climbing Chicago Center
Thu 06:49:37 PM 42.0978 -89.1947 273° West 372 428 27,200 1,548 Climbing Chicago Center
Thu 06:50:39 PM 42.1017 -89.3414 272° West 386 444 28,600 1,500 Climbing Chicago Center
Thu 06:51:41 PM 42.1203 -89.4858 280° West 396 456 30,300 1,548 Climbing Chicago Center
Thu 06:52:43 PM 42.1567 -89.6272 289° West 401 461 31,800 1,306 Climbing Chicago Center
Thu 06:53:45 PM 42.1931 -89.7689 289° West 400 460 33,000 1,306 Climbing Chicago Center
Thu 06:54:47 PM 42.2342 -89.9297 289° West 399 459 34,500 1,306 Climbing Chicago Center
Thu 06:55:49 PM 42.2689 -90.0672 289° West 394 453 35,700 919 Climbing Chicago Center
Thu 06:56:51 PM 42.2781 -90.2106 275° West 385 443 36,400 387 Climbing Chicago Center
Thu 06:57:53 PM 42.2831 -90.3581 273° West 394 453 36,500 240 Climbing Chicago Center
Thu 06:58:56 PM 42.2914 -90.5108 274° West 407 468 36,900 576 Climbing Chicago Center
Thu 06:59:58 PM 42.2997 -90.6981 274° West 418 481 37,700 532 Climbing Chicago Center
Thu 07:01:00 PM 42.3058 -90.8525 273° West 416 479 38,000 145 Climbing Chicago Center
Thu 07:02:02 PM 42.3125 -91.0089 273° West 419 482 38,000  Level Chicago Center
Thu 07:03:04 PM 42.3194 -91.1653 273° West 420 483 38,000  Level Chicago Center
Thu 07:04:06 PM 42.3256 -91.3211 273° West 417 480 38,000  Level Chicago Center
Thu 07:05:08 PM 42.3303 -91.4783 272° West 419 482 38,000  Level Chicago Center
Thu 07:06:10 PM 42.3383 -91.6708 273° West 425 489 38,000  Level Chicago Center
Thu 07:07:12 PM 42.3436 -91.8303 273° West 424 488 38,000  Level Chicago Center
Thu 07:08:15 PM 42.3492 -91.9889 273° West 423 487 38,000  Level Chicago Center
Thu 07:09:17 PM 42.3547 -92.1489 273° West 426 490 38,000  Level Chicago Center
Thu 07:09:33 PM 42.3572 -92.2150 273° West 429 494 38,000  Level Minneapolis Center
Thu 07:10:35 PM 42.3617 -92.3739 272° West 427 491 38,000  Level Minneapolis Center
Thu 07:11:37 PM 42.3661 -92.5342 272° West 429 494 38,000  Level Minneapolis Center
Thu 07:12:39 PM 42.3711 -92.6950 272° West 430 495 38,000  Level Minneapolis Center
Thu 07:13:41 PM 42.3756 -92.8556 272° West 430 495 38,000  Level Minneapolis Center
Thu 07:14:43 PM 42.3803 -93.0481 272° West 431 496 38,000  Level Minneapolis Center
Thu 07:15:46 PM 42.3844 -93.2119 272° West 437 503 38,000  Level Minneapolis Center
Thu 07:16:48 PM 42.3886 -93.3728 272° West 435 501 38,000  Level Minneapolis Center
Thu 07:17:50 PM 42.3922 -93.5331 272° West 433 498 38,000  Level Minneapolis Center
Thu 07:18:52 PM 42.3956 -93.6978 272° West 439 505 38,000  Level Minneapolis Center
Thu 07:19:54 PM 42.3978 -93.8900 271° West 433 498 38,000  Level Minneapolis Center
Thu 07:20:56 PM 42.3997 -94.0522 271° West 434 499 38,000  Level Minneapolis Center
Thu 07:21:58 PM 42.4044 -94.2147 272° West 438 504 38,000  Level Minneapolis Center
Thu 07:23:00 PM 42.4069 -94.3892 271° West 434 499 38,000  Level Minneapolis Center
Thu 07:24:02 PM 42.4083 -94.5533 271° West 438 504 38,000  Level Minneapolis Center
Thu 07:25:04 PM 42.4094 -94.7164 271° West 435 501 38,000  Level Minneapolis Center
Thu 07:26:06 PM 42.4117 -94.8786 271° West 434 499 38,000  Level Minneapolis Center
Thu 07:27:09 PM 42.4125 -95.0742 270° West 434 499 38,000  Level Minneapolis Center
Thu 07:28:11 PM 42.4142 -95.2381 271° West 436 502 38,000  Level Minneapolis Center
Thu 07:29:13 PM 42.4144 -95.4014 270° West 436 502 38,000  Level Minneapolis Center
Thu 07:30:15 PM 42.4153 -95.5644 270° West 435 501 38,000  Level Minneapolis Center
Thu 07:31:17 PM 42.4158 -95.7247 270° West 429 494 38,000  Level Minneapolis Center
Thu 07:32:19 PM 42.4158 -95.8878 270° West 432 497 38,000  Level Minneapolis Center
Thu 07:33:21 PM 42.4153 -96.0847 270° West 436 502 38,000  Level Minneapolis Center
Thu 07:34:23 PM 42.4147 -96.2472 270° West 435 501 38,000  Level Minneapolis Center
Thu 07:35:25 PM 42.4144 -96.4097 270° West 435 501 38,000  Level Minneapolis Center
Thu 07:36:27 PM 42.4136 -96.5717 270° West 433 498 38,000  Level Minneapolis Center
Thu 07:37:29 PM 42.4128 -96.7331 270° West 432 497 38,000  Level Minneapolis Center
Thu 07:38:32 PM 42.4106 -96.9253 269° West 429 494 38,000  Level Minneapolis Center
Thu 07:39:34 PM 42.4089 -97.0864 269° West 430 495 38,000  Level Minneapolis Center
Thu 07:40:36 PM 42.4075 -97.2475 269° West 430 495 38,000  Level Minneapolis Center
Thu 07:41:38 PM 42.4053 -97.4072 269° West 428 493 38,000  Level Minneapolis Center
Thu 07:42:40 PM 42.4033 -97.5675 269° West 427 491 38,000  Level Minneapolis Center
Thu 07:43:42 PM 42.4003 -97.7278 269° West 428 493 38,000  Level Minneapolis Center
Thu 07:44:44 PM 42.3969 -97.9108 269° West 425 489 38,000  Level Minneapolis Center
Thu 07:45:46 PM 42.3947 -98.0719 269° West 429 494 38,000  Level Minneapolis Center
Thu 07:46:48 PM 42.3919 -98.2317 269° West 427 491 38,000  Level Minneapolis Center
Thu 07:47:50 PM 42.3881 -98.3922 268° West 428 493 38,000  Level Minneapolis Center
Thu 07:48:52 PM 42.3842 -98.5861 269° West 431 496 38,000  Level Minneapolis Center
Thu 07:49:55 PM 42.3797 -98.7453 268° West 427 491 38,000  Level Minneapolis Center
Thu 07:50:57 PM 42.3761 -98.9056 268° West 427 491 38,000  Level Minneapolis Center
Thu 07:51:59 PM 42.3717 -99.0647 268° West 426 490 38,000  Level Minneapolis Center
Thu 07:53:01 PM 42.3669 -99.2214 268° West 421 484 38,000  Level Minneapolis Center
Thu 07:54:03 PM 42.3628 -99.3789 268° West 421 484 38,000  Level Minneapolis Center
Thu 07:54:21 PM 42.3606 -99.4436 267° West 422 486 38,000  Level Denver Center
Thu 07:55:23 PM 42.3553 -99.5994 267° West 419 482 38,000  Level Denver Center
Thu 07:56:25 PM 42.3494 -99.7744 267° West 425 489 38,000  Level Denver Center
Thu 07:57:27 PM 42.3431 -99.9256 267° West 423 487 38,000  Level Denver Center
Thu 07:58:29 PM 42.3378 -100.1025 268° West 424 488 38,000  Level Denver Center
Thu 07:59:31 PM 42.3314 -100.2561 267° West 427 491 38,000  Level Denver Center
Thu 08:00:33 PM 42.3244 -100.4339 267° West 425 489 38,000  Level Denver Center
Thu 08:01:35 PM 42.3189 -100.5869 267° West 428 493 38,000  Level Denver Center
Thu 08:02:37 PM 42.3108 -100.7656 267° West 427 491 38,000  Level Denver Center
Thu 08:03:39 PM 42.3047 -100.9189 267° West 427 491 38,000  Level Denver Center
Thu 08:04:41 PM 42.2969 -101.0981 267° West 429 494 38,000  Level Denver Center
Thu 08:05:43 PM 42.2894 -101.2486 266° West 424 488 38,000  Level Denver Center
Thu 08:06:45 PM 42.2819 -101.4256 267° West 423 487 38,000  Level Denver Center
Thu 08:07:47 PM 42.2739 -101.5764 266° West 422 486 38,000  Level Denver Center
Thu 08:08:49 PM 42.2653 -101.7517 266° West 422 486 38,000  Level Denver Center
Thu 08:09:51 PM 42.2569 -101.9017 266° West 420 483 38,000  Level Denver Center
Thu 08:10:53 PM 42.2511 -102.0269 266° West 420 483 38,000  Level Denver Center
Thu 08:11:55 PM 42.2408 -102.2394 266° West 422 486 38,000  Level Denver Center
Thu 08:12:57 PM 42.2297 -102.3908 264° West 424 488 38,000  Level Denver Center
Thu 08:13:59 PM 42.2200 -102.5675 266° West 425 489 38,000  Level Denver Center
Thu 08:15:01 PM 42.2111 -102.7192 266° West 425 489 38,000  Level Denver Center
Thu 08:16:03 PM 42.2025 -102.8706 266° West 425 489 38,000  Level Denver Center
Thu 08:17:05 PM 42.1914 -103.0478 265° West 425 489 38,000  Level Denver Center
Thu 08:18:07 PM 42.1814 -103.2003 265° West 427 491 38,000  Level Denver Center
Thu 08:19:09 PM 42.1706 -103.3778 265° West 426 490 38,000  Level Denver Center
Thu 08:20:11 PM 42.1592 -103.5308 264° West 429 494 38,000  Level Denver Center
Thu 08:21:13 PM 42.1478 -103.7094 265° West 429 494 38,000  Level Denver Center
Thu 08:22:15 PM 42.1367 -103.8633 264° West 430 495 38,000  Level Denver Center
Thu 08:23:17 PM 42.1236 -104.0439 264° West 433 498 38,000  Level Denver Center
Thu 08:24:19 PM 42.1122 -104.1961 264° West 429 494 38,000  Level Denver Center
Thu 08:25:21 PM 42.1036 -104.3236 265° West 428 493 38,000  Level Denver Center
Thu 08:26:23 PM 42.0886 -104.5253 264° West 425 489 38,000  Level Denver Center
Thu 08:27:25 PM 42.0786 -104.6500 264° West 421 484 38,000  Level Denver Center
Thu 08:28:27 PM 42.0622 -104.8525 264° West 426 490 38,000  Level Denver Center
Thu 08:29:29 PM 42.0503 -105.0064 264° West 430 495 38,000  Level Denver Center
Thu 08:30:31 PM 42.0364 -105.1847 264° West 430 495 38,000  Level Denver Center
Thu 08:31:45 PM 42.0306 -105.3339 267° West 421 484 38,000  Level Denver Center
Thu 08:32:47 PM 42.0225 -105.5336 267° West 420 483 38,000  Level Denver Center
Thu 08:33:49 PM 42.0153 -105.6836 266° West 421 484 38,000  Level Denver Center
Thu 08:34:51 PM 42.0083 -105.8603 267° West 423 487 38,000  Level Denver Center
Thu 08:35:53 PM 42.0019 -106.0117 267° West 426 490 38,000  Level Denver Center
Thu 08:36:55 PM 41.9922 -106.1861 266° West 421 484 38,000  Level Denver Center
Thu 08:37:57 PM 41.9861 -106.3378 267° West 425 489 38,000  Level Denver Center
Thu 08:38:59 PM 41.9778 -106.5147 266° West 426 490 38,000  Level Denver Center
Thu 08:40:01 PM 41.9686 -106.6772 266° West 431 496 38,000  Level Denver Center
Thu 08:41:03 PM 41.9594 -106.8300 265° West 430 495 38,000  Level Denver Center
Thu 08:42:05 PM 41.9500 -107.0103 266° West 433 498 38,000  Level Denver Center
Thu 08:43:07 PM 41.9422 -107.1647 266° West 434 499 38,000  Level Denver Center
Thu 08:44:20 PM 41.9308 -107.3450 265° West 435 501 38,000  Level Denver Center
Thu 08:45:23 PM 41.9194 -107.5525 266° West 438 504 38,000  Level Denver Center
Thu 08:46:22 PM 41.9078 -107.7058 264° West 434 499 38,000  Level Salt Lake Center
Thu 08:47:24 PM 41.8994 -107.8606 266° West 435 501 38,000  Level Salt Lake Center
Thu 08:48:26 PM 41.8881 -108.0397 265° West 435 501 38,000  Level Salt Lake Center
Thu 08:49:28 PM 41.8778 -108.1961 265° West 440 506 38,000  Level Salt Lake Center
Thu 08:50:29 PM 41.8656 -108.3744 265° West 433 498 38,000  Level Salt Lake Center
Thu 08:52:32 PM 41.8453 -108.6803 265° West 432 497 38,000  Level Salt Lake Center
Thu 08:53:34 PM 41.8325 -108.8594 265° West 435 501 38,000  Level Salt Lake Center
Thu 08:54:36 PM 41.8214 -109.0125 264° West 435 501 38,000  Level Salt Lake Center
Thu 08:55:37 PM 41.8092 -109.1925 265° West 438 504 38,000  Level Salt Lake Center
Thu 08:56:39 PM 41.7964 -109.3458 264° West 438 504 38,000  Level Salt Lake Center
Thu 08:57:40 PM 41.7822 -109.5275 264° West 440 506 38,000  Level Salt Lake Center
Thu 08:58:42 PM 41.7706 -109.6831 264° West 441 507 38,000  Level Salt Lake Center
Thu 08:59:44 PM 41.7558 -109.8639 264° West 442 509 38,000  Level Salt Lake Center
Thu 09:00:45 PM 41.7431 -110.0186 264° West 438 504 38,000  Level Salt Lake Center
Thu 09:01:47 PM 41.7281 -110.1986 264° West 438 504 38,000  Level Salt Lake Center
Thu 09:02:48 PM 41.7150 -110.3539 264° West 440 506 38,000  Level Salt Lake Center
Thu 09:03:50 PM 41.7019 -110.5106 264° West 442 509 38,000  Level Salt Lake Center
Thu 09:04:51 PM 41.6850 -110.6958 263° West 448 516 38,000  Level Salt Lake Center
Thu 09:05:53 PM 41.6711 -110.8522 263° West 445 512 38,000 341 Level Salt Lake Center
Thu 09:06:54 PM 41.6569 -111.0111 263° West 449 517 38,700 683 Climbing Salt Lake Center
Thu 09:07:56 PM 41.6386 -111.2061 263° West 444 511 39,400 585 Climbing Salt Lake Center
Thu 09:08:57 PM 41.6225 -111.3697 263° West 447 514 39,900 293 Climbing Salt Lake Center
Thu 09:09:59 PM 41.6081 -111.5339 263° West 449 517 40,000 49 Climbing Salt Lake Center
Thu 09:11:00 PM 41.5914 -111.6981 262° West 449 517 40,000  Level Salt Lake Center
Thu 09:12:02 PM 41.5756 -111.8636 263° West 454 522 40,000  Level Salt Lake Center
Thu 09:13:04 PM 41.5586 -112.0272 262° West 451 519 40,000  Level Salt Lake Center
Thu 09:14:05 PM 41.5389 -112.2244 262° West 451 519 40,000  Level Salt Lake Center
Thu 09:15:07 PM 41.5225 -112.3875 262° West 448 516 40,000  Level Salt Lake Center
Thu 09:16:08 PM 41.5050 -112.5519 262° West 451 519 40,000  Level Salt Lake Center
Thu 09:17:10 PM 41.4892 -112.7167 263° West 451 519 40,000  Level Salt Lake Center
Thu 09:18:11 PM 41.4708 -112.8836 262° West 456 525 40,000  Level Salt Lake Center
Thu 09:19:13 PM 41.4511 -113.0492 261° West 455 524 40,000  Level Salt Lake Center
Thu 09:20:14 PM 41.4331 -113.2131 262° West 451 519 40,000  Level Salt Lake Center
Thu 09:21:16 PM 41.4114 -113.4119 262° West 453 521 40,000  Level Salt Lake Center
Thu 09:22:17 PM 41.3914 -113.5750 261° West 449 517 40,000  Level Salt Lake Center
Thu 09:23:19 PM 41.3728 -113.7414 262° West 454 522 40,000  Level Salt Lake Center
Thu 09:24:20 PM 41.3472 -113.9069 258° West 458 527 40,000  Level Salt Lake Center
Thu 09:25:22 PM 41.3072 -114.0694 252° West 462 532 40,000  Level Salt Lake Center
Thu 09:26:23 PM 41.2681 -114.2297 252° West 460 529 40,000  Level Salt Lake Center
Thu 09:27:25 PM 41.2289 -114.3908 252° West 460 529 40,000  Level Salt Lake Center
Thu 09:28:26 PM 41.1911 -114.5517 253° West 458 527 40,000  Level Salt Lake Center
Thu 09:29:27 PM 41.1436 -114.7433 252° West 457 526 40,000  Level Salt Lake Center
Thu 09:30:29 PM 41.1047 -114.9019 252° West 457 526 40,000  Level Salt Lake Center
Thu 09:31:30 PM 41.0683 -115.0561 253° West 458 527 40,000  Level Salt Lake Center
Thu 09:32:32 PM 41.0214 -115.2339 251° West 458 527 40,000  Level Salt Lake Center
Thu 09:33:33 PM 40.9836 -115.3881 252° West 458 527 40,000  Level Salt Lake Center
Thu 09:34:35 PM 40.9436 -115.5414 251° West 460 529 40,000  Level Salt Lake Center
Thu 09:35:36 PM 40.8981 -115.7206 251° West 460 529 40,000  Level Salt Lake Center
Thu 09:36:37 PM 40.8611 -115.8742 252° West 459 528 40,000  Level Salt Lake Center
Thu 09:37:39 PM 40.8147 -116.0531 251° West 460 529 40,000  Level Salt Lake Center
Thu 09:38:40 PM 40.7742 -116.2050 251° West 461 531 40,000  Level Salt Lake Center
Thu 09:39:42 PM 40.7347 -116.3589 251° West 462 532 40,000  Level Salt Lake Center
Thu 09:40:43 PM 40.6881 -116.5386 251° West 464 534 40,000  Level Salt Lake Center
Thu 09:41:44 PM 40.6475 -116.6914 251° West 464 534 40,000  Level Salt Lake Center
Thu 09:42:46 PM 40.6000 -116.8697 251° West 466 536 40,000  Level Salt Lake Center
Thu 09:43:47 PM 40.5586 -117.0214 250° West 467 537 40,000  Level Salt Lake Center
Thu 09:44:49 PM 40.5106 -117.1986 250° West 467 537 40,000  Level Salt Lake Center
Thu 09:45:50 PM 40.4689 -117.3506 250° West 466 536 40,000  Level Salt Lake Center
Thu 09:46:52 PM 40.4114 -117.5236 246° West 470 541 40,000 -97 Level Salt Lake Center
Thu 09:47:54 PM 40.3406 -117.6564 235° Southwest 465 535 39,800 -537 Descending Salt Lake Center
Thu 09:48:55 PM 40.2706 -117.7897 235° Southwest 466 536 38,900 -984 Descending Salt Lake Center
Thu 09:49:56 PM 40.1881 -117.9456 235° Southwest 466 536 37,800 -976 Descending Salt Lake Center
Thu 09:50:58 PM 40.1158 -118.0800 235° Southwest 470 541 36,900 -898 Descending Salt Lake Center
Thu 09:52:03 PM 40.0356 -118.2369 236° Southwest 471 542 35,900 -952 Descending Oakland Center
Thu 09:53:04 PM 39.9619 -118.3747 235° Southwest 466 536 34,900 -1,268 Descending Oakland Center
Thu 09:54:06 PM 39.8869 -118.5117 235° Southwest 466 536 33,300 -2,244 Descending Oakland Center
Thu 09:55:07 PM 39.8128 -118.6472 235° Southwest 465 535 30,300 -2,902 Descending Oakland Center
Thu 09:56:08 PM 39.7253 -118.8072 235° Southwest 457 526 27,400 -2,607 Descending Oakland Center
Thu 09:57:09 PM 39.6539 -118.9353 234° Southwest 445 512 25,000 -2,683 Descending Oakland Center
Thu 09:58:11 PM 39.5839 -119.0611 234° Southwest 438 504 21,900 -2,683 Descending Oakland Center
Thu 09:59:12 PM 39.5150 -119.1861 234° Southwest 432 497 19,500 -2,656 Descending Oakland Center
Thu 10:00:13 PM 39.4458 -119.3108 234° Southwest 431 496 16,500 -2,656 Descending Oakland Center
Thu 10:01:14 PM 39.3764 -119.4347 234° Southwest 428 493 14,100 -2,213 Descending Oakland Center
Thu 10:02:15 PM 39.3092 -119.5475 232° Southwest 404 465 12,000 -1,073 Descending Oakland Center
Thu 10:03:17 PM 39.2483 -119.6317 227° Southwest 362 417 11,900 -878 Descending Oakland Center
Thu 10:04:18 PM 39.2886 -119.7292 298° West 276 318 10,200 -1,525 Descending Oakland Center
Thu 10:05:19 PM 39.3364 -119.7633 331° Northwest 236 272 8,800 -1,377 Descending Oakland Center

Login

Don't have an account? Register now (free) for customized features, flight alerts, and more!